Weather History for PACD - December, 2012

Change the Weather History Date:

Sunday, December 30, 2012

  Actual Average Record
Temperature  
Mean Temperature 32 °F 30 °F  
Max Temperature 33 °F 34 °F 47 °F (1992)
Min Temperature 30 °F 25 °F -1 °F (1979)
Degree Days  
Heating Degree Days 33 36  
Month to date heating degree days 1015  
Since 1 July heating degree days 4392 4041  
Cooling Degree Days 0    
Month to date cooling degree days  
Year to date cooling degree days  
Moisture  
Dew Point 30 °F    
Average Humidity 0    
Maximum Humidity 0    
Minimum Humidity 0    
Precipitation  
Precipitation 0.32 in 0.13 in 0.76 in (1994)
Month to date precipitation 3.61 4.34  
Year to date precipitation 44.00 41.55  
Snow  
Snow 3.20 in 0.40 in 3.20 in (2012)
Month to date snowfall 12.8 12.1  
Since 1 July snowfall 21.8 24.7  
Snow Depth 5.00 in    
Sea Level Pressure  
Sea Level Pressure 28.74 in    
Wind  
Wind Speed 17 mph (West)    
Max Wind Speed 26 mph    
Max Gust Speed 31 mph    
Visibility 4 miles    
Events Rain , Snow    
T = Trace of Precipitation, MM = Missing Value Source: NWS Daily Summary

Daily Weather History Graph

Daily Weather History Graph

Search for Another Location

Airport or City:

Trip Planner

Search our weather history database for the weather conditions in past years. The results will help you decide how hot, cold, wet, or windy it might be!

Date:

Astronomy

Dec. 30, 2012 Rise Set
Actual Time 10:17 AM AKST 5:30 PM AKST
Civil Twilight 9:31 AM AKST 6:16 PM AKST
Nautical Twilight 8:44 AM AKST 7:03 PM AKST
Astronomical Twilight 7:59 AM AKST 7:48 PM AKST
Moon 8:45 PM AKST (12/30) 11:04 AM AKST (12/30)
Length of Visible Light 8h 44m
Length of Day
7h 13m
Waning Gibbous, 94% of the Moon is Illuminated
Dec 30
Waning Gibbous
Jan 4
Last Quarter
Jan 11
New
Jan 18
First Quarter
Jan 26
Full

Hourly Weather History & Observations

Time (AKST) Temp. Windchill Dew Point Humidity Pressure Visibility Wind Dir Wind Speed Gust Speed Precip Events Conditions
12:53 AM 33.1 °F 20.9 °F 30.9 °F 92% 28.69 in 3.0 mi NNW 21.9 mph - 0.02 in Snow Light Snow
1:23 AM 33.8 °F 21.6 °F 30.2 °F 87% 28.67 in 2.0 mi NW 23.0 mph - 0.00 in Snow Light Snow
1:44 AM 33.8 °F 21.9 °F 32.0 °F 93% 28.66 in 1.5 mi NW 21.9 mph - 0.01 in Snow Light Snow
1:53 AM 33.1 °F 21.2 °F 32.0 °F 96% 28.67 in 1.2 mi NW 20.7 mph - 0.02 in Snow Light Snow
2:09 AM 33.8 °F 22.2 °F 32.0 °F 93% 28.66 in 2.5 mi NW 20.7 mph - 0.01 in Snow Light Snow
2:50 AM 33.8 °F 22.5 °F 32.0 °F 93% 28.65 in 1.8 mi NW 19.6 mph - 0.02 in Snow Light Snow
2:53 AM 33.1 °F 20.9 °F 32.0 °F 96% 28.65 in 1.8 mi NW 21.9 mph - 0.02 in Snow Light Snow
3:10 AM 33.8 °F 22.2 °F 32.0 °F 93% 28.64 in 2.5 mi NW 20.7 mph - 0.01 in Snow Light Snow
3:53 AM 33.1 °F 21.5 °F 32.0 °F 96% 28.64 in 2.5 mi NNW 19.6 mph - 0.03 in Snow Light Snow
4:27 AM 33.8 °F 22.2 °F 32.0 °F 93% 28.63 in 3.0 mi NNW 20.7 mph - 0.01 in Snow Light Snow
4:53 AM 33.1 °F 20.9 °F 30.9 °F 92% 28.63 in 3.0 mi NNW 21.9 mph - 0.02 in Snow Light Snow
5:02 AM 33.8 °F 21.9 °F 30.2 °F 87% 28.62 in 2.0 mi NNW 21.9 mph - 0.00 in Snow Light Snow
5:13 AM 33.8 °F 21.3 °F 30.2 °F 87% 28.62 in 2.0 mi NNW 24.2 mph - 0.01 in Snow Light Snow
5:21 AM 33.8 °F 21.6 °F 30.2 °F 87% 28.62 in 1.8 mi NW 23.0 mph - 0.01 in Snow Light Snow
5:33 AM 33.8 °F 21.9 °F 30.2 °F 87% 28.62 in 2.5 mi NW 21.9 mph - 0.01 in Snow Light Snow
5:44 AM 33.8 °F 21.9 °F 30.2 °F 87% 28.62 in 3.0 mi NW 21.9 mph - 0.02 in Snow Light Snow
5:51 AM 33.8 °F 21.9 °F 30.2 °F 87% 28.62 in 4.0 mi NW 21.9 mph - 0.02 in Snow Light Snow
5:53 AM 33.1 °F 21.5 °F 30.9 °F 92% 28.63 in 4.0 mi NW 19.6 mph - 0.02 in Snow Light Snow
6:43 AM 33.8 °F 21.6 °F 30.2 °F 87% 28.61 in 2.5 mi NW 23.0 mph - 0.00 in Snow Light Snow
6:51 AM 33.8 °F 22.2 °F 30.2 °F 87% 28.62 in 2.5 mi NW 20.7 mph - 0.00 in Snow Light Snow
6:53 AM 33.1 °F 21.2 °F 30.9 °F 92% 28.62 in 2.5 mi NW 20.7 mph - 0.00 in Snow Light Snow
7:00 AM 33.8 °F 21.9 °F 30.2 °F 87% 28.62 in 3.0 mi NW 21.9 mph - 0.00 in Snow Light Snow
7:29 AM 32.0 °F 19.5 °F 30.2 °F 93% 28.62 in 2.5 mi NW 21.9 mph - 0.00 in Snow Light Snow
7:53 AM 32.0 °F 20.1 °F 30.9 °F 96% 28.62 in 2.0 mi WNW 19.6 mph - 0.01 in Snow Light Snow
8:03 AM 32.0 °F 19.5 °F 30.2 °F 93% 28.62 in 2.5 mi NW 21.9 mph - 0.01 in Snow Light Snow
8:16 AM 32.0 °F 20.1 °F 30.2 °F 93% 28.62 in 1.8 mi WNW 19.6 mph - 0.01 in Snow Light Snow
8:27 AM 32.0 °F 20.5 °F 30.2 °F 93% 28.61 in 2.0 mi WNW 18.4 mph - 0.01 in Snow Light Snow
8:50 AM 32.0 °F 20.8 °F 30.2 °F 93% 28.62 in 3.0 mi WNW 17.3 mph - 0.01 in Snow Light Snow
8:53 AM 32.0 °F 21.2 °F 30.9 °F 96% 28.62 in 2.5 mi WNW 16.1 mph - 0.01 in Snow Light Snow
9:30 AM 32.0 °F 20.1 °F 30.2 °F 93% 28.63 in 3.0 mi WNW 19.6 mph - 0.01 in Snow Light Snow
9:51 AM 32.0 °F 20.8 °F 30.2 °F 93% 28.64 in 2.5 mi WNW 17.3 mph - 0.01 in Snow Light Snow
9:53 AM 32.0 °F 20.8 °F 30.9 °F 96% 28.65 in 2.0 mi WNW 17.3 mph - 0.01 in Snow Light Snow
10:11 AM 32.0 °F 20.5 °F 30.2 °F 93% 28.65 in 1.8 mi WNW 18.4 mph - 0.01 in Snow Light Snow
10:39 AM 32.0 °F 20.1 °F 30.2 °F 93% 28.67 in 0.8 mi WNW 19.6 mph - 0.03 in Snow Light Snow
10:48 AM 32.0 °F 20.1 °F 30.2 °F 93% 28.67 in 1.0 mi WNW 19.6 mph - 0.04 in Snow Light Snow
10:53 AM 32.0 °F 19.8 °F 30.9 °F 96% 28.68 in 1.0 mi West 20.7 mph - 0.04 in Snow Light Snow
11:14 AM 32.0 °F 20.5 °F 32.0 °F 100% 28.68 in 2.0 mi West 18.4 mph - 0.01 in Snow Light Snow
11:38 AM 32.0 °F 20.1 °F 30.2 °F 93% 28.69 in 1.5 mi West 19.6 mph - 0.02 in Snow Light Snow
11:53 AM 32.0 °F 19.8 °F 30.9 °F 96% 28.70 in 1.2 mi West 20.7 mph - 0.02 in Snow Light Snow
12:29 PM 32.0 °F 19.8 °F 30.2 °F 93% 28.71 in 1.2 mi West 20.7 mph - 0.02 in Snow Light Snow
12:53 PM 32.0 °F 20.1 °F 30.9 °F 96% 28.72 in 1.2 mi West 19.6 mph - 0.03 in Snow Light Snow
1:13 PM 32.0 °F 20.5 °F 30.2 °F 93% 28.73 in 1.0 mi West 18.4 mph - 0.00 in Snow Light Snow
1:39 PM 32.0 °F 20.1 °F 30.2 °F 93% 28.74 in 1.5 mi West 19.6 mph - 0.01 in Snow Light Snow
1:46 PM 32.0 °F 20.5 °F 30.2 °F 93% 28.74 in 1.5 mi West 18.4 mph - 0.02 in Snow Light Snow
1:53 PM 32.0 °F 19.8 °F 32.0 °F 100% 28.74 in 1.5 mi West 20.7 mph - 0.02 in Snow Light Snow
2:53 PM 32.0 °F 20.5 °F 30.9 °F 96% 28.77 in 1.2 mi West 18.4 mph - N/A Snow Light Snow
3:05 PM 32.0 °F 20.5 °F 30.2 °F 93% 28.78 in 1.8 mi West 18.4 mph - 0.01 in Snow Light Snow
3:08 PM 32.0 °F 20.5 °F 30.2 °F 93% 28.78 in 3.0 mi West 18.4 mph - 0.01 in Snow Light Snow
3:32 PM 32.0 °F 20.5 °F 30.2 °F 93% 28.79 in 2.5 mi West 18.4 mph - 0.01 in Snow Light Snow
3:40 PM 33.8 °F 22.8 °F 30.2 °F 87% 28.79 in 3.0 mi West 18.4 mph - 0.01 in Snow Light Snow
3:53 PM 32.0 °F 20.8 °F 30.9 °F 96% 28.80 in 4.0 mi West 17.3 mph - 0.01 in Snow Light Snow
4:09 PM 32.0 °F 21.2 °F 30.2 °F 93% 28.82 in 2.0 mi West 16.1 mph - 0.00 in Snow Light Snow
4:17 PM 32.0 °F 21.6 °F 30.2 °F 93% 28.82 in 4.0 mi West 15.0 mph - 0.00 in Snow Light Snow
4:29 PM 32.0 °F 21.6 °F 30.2 °F 93% 28.82 in 2.0 mi West 15.0 mph - 0.00 in Snow Light Snow
4:39 PM 32.0 °F 21.6 °F 30.2 °F 93% 28.83 in 5.0 mi West 15.0 mph - 0.00 in   Overcast
4:53 PM 32.0 °F 22.1 °F 30.9 °F 96% 28.84 in 2.0 mi West 13.8 mph - 0.00 in Snow Light Snow
4:57 PM 32.0 °F 22.1 °F 30.2 °F 93% 28.83 in 3.0 mi West 13.8 mph - 0.00 in Snow Light Snow
5:06 PM 32.0 °F 21.6 °F 30.2 °F 93% 28.83 in 2.5 mi West 15.0 mph - 0.01 in Snow Light Snow
5:29 PM 32.0 °F 22.5 °F 32.0 °F 100% 28.85 in 1.5 mi West 12.7 mph - 0.01 in Snow Light Snow
5:33 PM 32.0 °F 23.0 °F 30.2 °F 93% 28.85 in 2.0 mi West 11.5 mph - 0.02 in Snow Light Snow
5:44 PM 32.0 °F 23.6 °F 30.2 °F 93% 28.85 in 4.0 mi West 10.4 mph - 0.02 in Snow Light Snow
5:53 PM 32.0 °F 23.0 °F 30.9 °F 96% 28.86 in 6.0 mi West 11.5 mph - 0.02 in   Overcast
6:04 PM 32.0 °F 22.5 °F 30.2 °F 93% 28.87 in 8.0 mi WSW 12.7 mph - 0.00 in Snow Light Snow
6:40 PM 32.0 °F 22.5 °F 30.2 °F 93% 28.88 in 6.0 mi WSW 12.7 mph - N/A Snow Light Snow
6:49 PM 33.8 °F 24.3 °F 30.2 °F 87% 28.89 in 6.0 mi WSW 13.8 mph - 0.00 in   Overcast
6:53 PM 33.1 °F 23.0 °F 30.9 °F 92% 28.90 in 5.0 mi WSW 15.0 mph - 0.00 in Snow Light Snow
7:25 PM 33.8 °F 23.5 °F 30.2 °F 87% 28.90 in 3.0 mi SW 16.1 mph - 0.00 in Snow Light Snow
7:35 PM 33.8 °F 22.8 °F 30.2 °F 87% 28.90 in 6.0 mi WSW 18.4 mph - 0.00 in Snow Light Snow
7:51 PM 33.8 °F 22.2 °F 30.2 °F 87% 28.91 in 9.0 mi SW 20.7 mph - 0.00 in Rain Light Rain
7:53 PM 33.1 °F 22.2 °F 30.0 °F 89% 28.91 in 9.0 mi WSW 17.3 mph - 0.00 in Rain Light Rain
8:36 PM 33.8 °F 23.9 °F 28.4 °F 81% 28.94 in 10.0 mi SW 15.0 mph - 0.00 in   Overcast
8:43 PM 32.0 °F 22.5 °F 28.4 °F 87% 28.95 in 10.0 mi SW 12.7 mph - 0.00 in   Overcast
8:53 PM 32.0 °F 22.1 °F 28.0 °F 85% 28.95 in 10.0 mi SW 13.8 mph - 0.00 in   Overcast
9:53 PM 33.1 °F 23.4 °F 28.0 °F 82% 28.99 in 10.0 mi SW 13.8 mph - N/A   Overcast
10:40 PM 33.8 °F 24.8 °F 28.4 °F 81% 29.01 in 10.0 mi SW 12.7 mph - N/A   Overcast
10:53 PM 33.1 °F 24.9 °F 28.0 °F 82% 29.02 in 10.0 mi SW 10.4 mph - N/A   Overcast
11:53 PM 30.0 °F 24.1 °F 26.1 °F 85% 29.04 in 10.0 mi SSE 5.8 mph - N/A   Overcast